South Brent, United Kingdom
Current Conditions -  °F | °C
As of 8:20 PM on Sunday 25 Jan 2015 (Local Time) from EGTE Reporting Station
Broken Clouds Broken Clouds  
Wind Chill: 44°   Ceiling: 4700
Heat Index: 46°   Visibility: 5mi
Dew Point: 45°   Wind: 5mph
Humidity: 93%   Direction: 210°SSW
Pressure: 30.36"   Gusts: NA
Location:  50.43°N, 3.83°W
Report Text: EGTE 252020Z 21004KT 8000 FEW009 SCT016 BKN047 08/07 Q1028
Loading
Personal Weather Stations






























Interactive Weather Map New forecast layout! Learn more

10-Day Weather Forecast

Advertisements
Track Severe Weather on mobile